Nezperce, ID (83543)

8:01 PM PDT on August 27, 2014 (GMT -0700)
Highland Schools | Change Station
CLOSE
Current Station
Personal Weather Station
Location: Craigmont, ID
Elevation: 3783 ft
Nearby Weather Stations

Elev 3783 ft 46.24 °N, 116.47 °W | Updated 0 second ago

Clear
Clear
75.1 °F
Feels Like 77 °F
N
0.0
Wind Variable Wind from NNW
Gusts 0.0 mph

Today
High -- | Low -- °F
--% Chance of Precip.
Yesterday
High -- | Low -- °F
Precip. -- in
5:59 AM 7:32 PM
Waxing Crescent, 6% visible
Pressure 30.09 in
Visibility 10.0 miles
Clouds Clear
Heat Index 77 °F
Dew Point 42 °F
Humidity 31%
Rainfall 0.00 in
Snow Depth Not available.
UV 0 out of 12
Pollen 7.90 out of 12
PM2.5 Good
Flu Activity Not available.
METAR KGIC 280255Z AUTO 14005KT 10SM CLR 22/04 A3009 RMK AO1 T02240036

More Conditions Fewer Conditions

Pressure 30.09 in
Visibility 10.0 miles
Clouds Clear
Heat Index 77 °F
Dew Point 42 °F
Humidity 31%
Rainfall 0.00 in
Snow Depth Not available.
UV 0 out of 12
Pollen 7.90 out of 12
PM2.5 Good
Flu Activity Not available.
METAR KGIC 280255Z AUTO 14005KT 10SM CLR 22/04 A3009 RMK AO1 T02240036

More Conditions Fewer Conditions

10-Day Weather Forecast

Almanac

Astronomy

Aug. 27, 2014 Rise Set
Actual Time 5:59 AM PDT 7:32 PM PDT
Civil Twilight 5:27 AM PDT 8:04 PM PDT
Nautical Twilight 4:49 AM PDT 8:42 PM PDT
Astronomical Twilight 4:08 AM PDT 9:23 PM PDT
Moon 8:08 AM PDT (8/27) 8:16 PM PDT (8/27)
Length of Visible Light 14h 36m
Length of Day
13h 33m
Tomorrow will be 3m 6s shorter.
Waxing Crescent, 6% of the Moon is Illuminated
Today
Waxing Crescent
Sep 2
First Quarter
Sep 8
Full
Sep 15
Last Quarter
Sep 24
New

Today's Extremes

State Highs State Lows

Community

WunderPhotos

Upload Photos

1,747,888 photos uploaded!

Nearby

Air Quality

  Air Quality AQ Index Pollutant
Yesterday Good
PM2.5
Current Good
PM2.5
Wednesday Good
PM2.5
Thursday Good
PM2.5
Friday Good
PM2.5

Snow Depth

Station Depth Elevation
Moscow Mountain 0 in 4700 ft
Lost Lake 0 in 6110 ft
Savage Pass 1 in 6170 ft
Bear Basin 0 in 5350 ft
Lookout 0 in 5140 ft

Earthquake Activity

City Distance Mag. Time & Date
No recent earthquake activity has been reported nearby.
Minimum magnitude displayed is 2.5.

Coastal Water Temperatures

Place Temperature
No Stations Reporting

Nearby Weather Stations